createdAt,value
2022-10-07T00:01:01.558Z,7.13
2022-10-07T00:03:30.005Z,7.34
2022-10-07T00:06:11.665Z,7.20
2022-10-07T00:08:42.247Z,7.36
2022-10-07T00:11:27.302Z,7.20
2022-10-07T00:13:59.213Z,7.36
2022-10-07T00:16:32.353Z,7.44
2022-10-07T00:19:03.716Z,7.18
2022-10-07T00:21:34.905Z,6.88
2022-10-07T00:24:02.581Z,7.40
2022-10-07T00:26:32.876Z,7.58
2022-10-07T00:29:00.486Z,7.57
2022-10-07T00:31:35.606Z,7.45
2022-10-07T00:34:04.199Z,7.50
2022-10-07T00:36:35.756Z,7.29
2022-10-07T00:39:12.210Z,7.18
2022-10-07T00:41:52.371Z,6.93
2022-10-07T00:44:41.886Z,7.33
2022-10-07T00:47:29.690Z,7.14
2022-10-07T00:50:23.639Z,6.70
2022-10-07T00:53:02.096Z,6.46
2022-10-07T00:55:31.638Z,6.81
2022-10-07T00:58:08.654Z,7.07
2022-10-07T01:00:38.884Z,6.99
2022-10-07T01:03:06.251Z,6.87
2022-10-07T01:05:33.243Z,7.03
2022-10-07T01:08:01.186Z,7.36
2022-10-07T01:10:49.621Z,7.66
2022-10-07T01:13:45.354Z,7.35
2022-10-07T01:16:44.583Z,6.67
2022-10-07T01:20:01.224Z,6.91
2022-10-07T01:23:23.951Z,7.13
2022-10-07T01:26:37.036Z,6.54
2022-10-07T01:29:26.508Z,6.44
2022-10-07T01:32:40.359Z,6.44
2022-10-07T01:35:15.602Z,6.63
2022-10-07T01:37:49.243Z,6.58
2022-10-07T01:40:24.034Z,6.36
2022-10-07T01:42:54.269Z,6.14
2022-10-07T01:45:24.860Z,6.72
2022-10-07T01:47:52.236Z,6.80
2022-10-07T01:50:25.310Z,6.56
2022-10-07T01:53:26.515Z,6.46
2022-10-07T01:56:42.010Z,6.40
2022-10-07T01:59:53.073Z,6.46
2022-10-07T02:03:04.921Z,6.26
2022-10-07T02:05:46.666Z,6.45
2022-10-07T02:08:52.335Z,6.45
2022-10-07T02:11:27.914Z,6.22
2022-10-07T02:14:29.690Z,5.99
2022-10-07T02:17:14.234Z,6.09
2022-10-07T02:19:53.381Z,6.14
2022-10-07T02:22:27.887Z,5.97
2022-10-07T02:24:59.052Z,6.44
2022-10-07T02:27:34.962Z,6.23
2022-10-07T02:30:15.190Z,5.85
2022-10-07T02:32:53.918Z,5.69
2022-10-07T02:35:47.386Z,5.77
2022-10-07T02:38:18.411Z,5.91
2022-10-07T02:41:31.362Z,6.03
2022-10-07T02:44:33.621Z,5.92
2022-10-07T02:47:22.125Z,5.82
2022-10-07T02:49:53.175Z,5.91
2022-10-07T02:52:22.218Z,5.93
2022-10-07T02:55:04.984Z,5.82
2022-10-07T02:57:39.924Z,5.95
2022-10-07T03:00:11.370Z,5.74
2022-10-07T03:02:44.912Z,5.66
2022-10-07T03:05:13.666Z,5.95
2022-10-07T03:07:42.064Z,5.90
2022-10-07T03:10:09.962Z,5.70
2022-10-07T03:12:36.884Z,5.47
2022-10-07T03:15:04.286Z,5.56
2022-10-07T03:17:31.224Z,5.52
2022-10-07T03:19:58.157Z,5.55
2022-10-07T03:22:25.090Z,5.56
2022-10-07T03:24:52.198Z,5.70
2022-10-07T03:27:19.352Z,5.95
2022-10-07T03:29:46.324Z,5.78
2022-10-07T03:32:13.462Z,5.45
2022-10-07T03:34:40.546Z,5.63
2022-10-07T03:37:07.952Z,5.70
2022-10-07T03:39:34.950Z,5.97
2022-10-07T03:42:01.964Z,5.98
2022-10-07T03:44:28.881Z,6.03
2022-10-07T03:46:55.935Z,5.64
2022-10-07T03:49:25.724Z,5.52
2022-10-07T03:51:52.791Z,5.44
2022-10-07T03:54:19.818Z,5.46
2022-10-07T03:56:46.759Z,5.30
2022-10-07T03:59:15.247Z,5.31
2022-10-07T04:01:42.421Z,5.49
2022-10-07T04:04:09.428Z,5.32
2022-10-07T04:06:36.574Z,5.39
2022-10-07T04:09:03.563Z,5.45
2022-10-07T04:11:30.994Z,5.24
2022-10-07T04:14:00.645Z,5.38
2022-10-07T04:16:28.195Z,5.34
2022-10-07T04:18:56.193Z,5.17
2022-10-07T04:21:24.975Z,5.47
2022-10-07T04:23:55.270Z,5.74
2022-10-07T04:26:22.255Z,5.56
2022-10-07T04:28:49.390Z,5.33
2022-10-07T04:31:16.516Z,5.18
2022-10-07T04:33:44.242Z,5.17
2022-10-07T04:36:12.747Z,5.10
2022-10-07T04:38:39.771Z,5.21
2022-10-07T04:41:07.943Z,5.21
2022-10-07T04:43:35.342Z,5.60
2022-10-07T04:46:10.724Z,5.44
2022-10-07T04:48:37.665Z,5.38
2022-10-07T04:51:09.113Z,5.25
2022-10-07T04:53:40.994Z,5.57
2022-10-07T04:56:08.830Z,5.58
2022-10-07T04:58:36.877Z,5.40
2022-10-07T05:01:09.812Z,5.24
2022-10-07T05:03:40.047Z,5.44
2022-10-07T05:06:08.200Z,5.11
2022-10-07T05:08:35.477Z,5.21
2022-10-07T05:11:03.433Z,5.03
2022-10-07T05:13:34.285Z,5.10
2022-10-07T05:16:02.751Z,5.19
2022-10-07T05:18:31.344Z,5.36
2022-10-07T05:20:58.342Z,5.67
2022-10-07T05:23:28.709Z,5.43
2022-10-07T05:26:04.536Z,5.33
2022-10-07T05:28:32.060Z,5.44
2022-10-07T05:31:14.323Z,5.48
2022-10-07T05:33:42.779Z,5.57
2022-10-07T05:36:11.590Z,5.59
2022-10-07T05:38:38.991Z,5.52
2022-10-07T05:41:11.087Z,5.50
2022-10-07T05:43:43.105Z,5.47
2022-10-07T05:46:18.017Z,5.79
2022-10-07T05:48:52.490Z,5.46
2022-10-07T05:51:21.046Z,5.55
2022-10-07T05:53:48.256Z,5.50
2022-10-07T05:56:21.518Z,5.69
2022-10-07T05:58:50.424Z,5.89
2022-10-07T06:01:21.372Z,6.08
2022-10-07T06:03:52.390Z,6.14
2022-10-07T06:06:20.239Z,6.14
2022-10-07T06:08:48.002Z,6.45
2022-10-07T06:11:36.538Z,6.60
2022-10-07T06:14:05.182Z,6.62
2022-10-07T06:16:32.487Z,7.06
2022-10-07T06:19:00.262Z,7.24
2022-10-07T06:21:28.512Z,7.32
2022-10-07T06:23:58.373Z,7.45
2022-10-07T06:26:25.439Z,7.70
2022-10-07T06:28:52.349Z,7.94
2022-10-07T06:31:22.277Z,8.07
2022-10-07T06:33:50.313Z,7.99
2022-10-07T06:36:18.000Z,8.07
2022-10-07T06:38:54.147Z,8.30
2022-10-07T06:41:22.587Z,8.32
2022-10-07T06:43:49.881Z,8.37
2022-10-07T06:46:20.455Z,8.46
2022-10-07T06:48:47.794Z,8.62
2022-10-07T06:51:19.958Z,8.54
2022-10-07T06:53:52.998Z,8.70
2022-10-07T06:56:20.580Z,8.88
2022-10-07T06:58:49.708Z,8.76
2022-10-07T07:01:16.882Z,8.93
2022-10-07T07:03:43.994Z,9.02
2022-10-07T07:06:11.164Z,9.26
2022-10-07T07:08:41.030Z,9.14
2022-10-07T07:11:32.400Z,9.36
2022-10-07T07:13:59.636Z,9.27
2022-10-07T07:16:27.254Z,9.19
2022-10-07T07:18:57.058Z,9.41
2022-10-07T07:21:26.021Z,9.41
2022-10-07T07:23:53.110Z,9.50
2022-10-07T07:26:20.814Z,9.80
2022-10-07T07:28:59.008Z,9.94
2022-10-07T07:31:29.036Z,9.99
2022-10-07T07:34:07.204Z,10.29
2022-10-07T07:36:36.259Z,10.18
2022-10-07T07:39:11.617Z,10.58
2022-10-07T07:41:45.887Z,10.35
2022-10-07T07:44:16.998Z,10.29
2022-10-07T07:46:52.042Z,10.79
2022-10-07T07:49:20.881Z,11.06
2022-10-07T07:51:48.565Z,10.82
2022-10-07T07:54:16.022Z,11.05
2022-10-07T07:56:43.079Z,11.05
2022-10-07T07:59:11.622Z,11.13
2022-10-07T08:01:39.009Z,11.44
2022-10-07T08:04:06.467Z,11.57
2022-10-07T08:06:34.710Z,11.46
2022-10-07T08:09:01.782Z,11.87
2022-10-07T08:11:29.433Z,12.13
2022-10-07T08:13:57.097Z,12.23
2022-10-07T08:16:28.138Z,12.25
2022-10-07T08:18:57.494Z,12.51
2022-10-07T08:21:32.768Z,12.64
2022-10-07T08:24:03.102Z,12.79
2022-10-07T08:26:33.624Z,12.79
2022-10-07T08:29:01.505Z,12.90
2022-10-07T08:31:29.551Z,13.13
2022-10-07T08:34:00.939Z,13.29
2022-10-07T08:36:32.997Z,13.52
2022-10-07T08:39:02.406Z,13.59
2022-10-07T08:42:08.368Z,13.76
2022-10-07T08:44:44.962Z,13.85
2022-10-07T08:47:38.636Z,13.86
2022-10-07T08:50:57.434Z,13.89
2022-10-07T08:53:36.852Z,14.19
2022-10-07T08:56:16.585Z,14.26
2022-10-07T08:59:10.516Z,14.67
2022-10-07T09:02:33.274Z,14.87
2022-10-07T09:05:39.027Z,15.02
2022-10-07T09:08:30.562Z,15.04
2022-10-07T09:11:15.756Z,15.32
2022-10-07T09:13:56.079Z,15.22
2022-10-07T09:16:45.415Z,15.43
2022-10-07T09:19:39.444Z,15.72
2022-10-07T09:22:37.210Z,15.84
2022-10-07T09:25:15.821Z,15.92
2022-10-07T09:27:43.582Z,15.76
2022-10-07T09:30:14.392Z,15.95
2022-10-07T09:32:46.262Z,15.97
2022-10-07T09:35:17.512Z,16.21
2022-10-07T09:38:03.728Z,16.28
2022-10-07T09:41:07.916Z,16.29
2022-10-07T09:43:36.334Z,16.70
2022-10-07T09:46:03.498Z,16.97
2022-10-07T09:48:34.719Z,16.96
2022-10-07T09:51:32.763Z,17.05
2022-10-07T09:54:16.990Z,17.25
2022-10-07T09:56:47.059Z,17.23
2022-10-07T09:59:34.316Z,17.50
2022-10-07T10:02:24.879Z,17.22
2022-10-07T10:04:58.606Z,17.27
2022-10-07T10:07:36.188Z,17.57
2022-10-07T10:10:16.944Z,17.64
2022-10-07T10:12:51.175Z,17.94
2022-10-07T10:15:36.154Z,18.18
2022-10-07T10:18:34.034Z,18.08
2022-10-07T10:21:23.084Z,18.27
2022-10-07T10:24:06.319Z,18.14
2022-10-07T10:27:35.493Z,18.23
2022-10-07T10:30:16.488Z,18.29
2022-10-07T10:33:26.908Z,18.57
2022-10-07T10:36:15.277Z,18.73
2022-10-07T10:39:28.052Z,18.78
2022-10-07T10:42:02.689Z,18.92
2022-10-07T10:45:33.636Z,18.99
2022-10-07T10:48:38.969Z,18.88
2022-10-07T10:52:13.437Z,18.93
2022-10-07T10:55:12.352Z,19.18
2022-10-07T10:58:24.301Z,19.14
2022-10-07T11:01:09.757Z,19.23
2022-10-07T11:04:42.014Z,19.25
2022-10-07T11:07:31.667Z,19.47
2022-10-07T11:10:37.511Z,19.89
2022-10-07T11:13:13.321Z,19.66
2022-10-07T11:15:51.684Z,19.83
2022-10-07T11:18:42.071Z,19.53
2022-10-07T11:21:20.362Z,20.07
2022-10-07T11:24:11.022Z,19.56
2022-10-07T11:26:57.349Z,19.88
2022-10-07T11:30:08.074Z,20.15
2022-10-07T11:33:06.678Z,20.43
2022-10-07T11:35:43.904Z,20.15
2022-10-07T11:38:10.703Z,20.13
2022-10-07T11:40:58.094Z,20.42
2022-10-07T11:43:58.482Z,20.22
2022-10-07T11:46:41.015Z,20.66
2022-10-07T11:49:55.922Z,20.07
2022-10-07T11:52:33.762Z,20.30
2022-10-07T11:55:22.033Z,20.51
2022-10-07T11:57:58.643Z,20.51
2022-10-07T12:00:36.938Z,20.64
2022-10-07T12:03:33.690Z,20.64
2022-10-07T12:06:11.713Z,21.19
2022-10-07T12:08:42.010Z,20.97
2022-10-07T12:11:12.441Z,21.48
2022-10-07T12:13:50.732Z,21.04
2022-10-07T12:16:52.024Z,20.82
2022-10-07T12:19:23.625Z,20.97
2022-10-07T12:22:03.049Z,20.79
2022-10-07T12:24:36.766Z,21.09
2022-10-07T12:27:26.531Z,20.66
2022-10-07T12:30:02.802Z,20.92
2022-10-07T12:32:53.669Z,21.14
2022-10-07T12:35:35.855Z,20.96
2022-10-07T12:38:10.735Z,20.75
2022-10-07T12:40:51.017Z,20.79
2022-10-07T12:44:15.370Z,20.95
2022-10-07T12:47:18.528Z,21.62
2022-10-07T12:50:13.000Z,20.50
2022-10-07T12:52:56.339Z,20.68
2022-10-07T12:55:38.074Z,20.80
2022-10-07T12:59:14.390Z,20.82
2022-10-07T13:02:31.605Z,20.91
2022-10-07T13:05:49.219Z,20.96
2022-10-07T13:09:06.648Z,20.83
2022-10-07T13:12:15.103Z,21.21
2022-10-07T13:15:20.803Z,21.41
2022-10-07T13:18:38.506Z,21.54
2022-10-07T13:21:33.146Z,21.30
2022-10-07T13:24:00.238Z,21.48
2022-10-07T13:26:27.599Z,21.64
2022-10-07T13:29:00.681Z,21.60
2022-10-07T13:31:47.959Z,21.01
2022-10-07T13:34:20.072Z,19.87
2022-10-07T13:36:48.928Z,21.17
2022-10-07T13:39:23.238Z,21.40
2022-10-07T13:41:59.641Z,21.27
2022-10-07T13:44:31.975Z,20.24
2022-10-07T13:47:05.686Z,21.07
2022-10-07T13:49:45.439Z,21.16
2022-10-07T13:52:44.332Z,21.26
2022-10-07T13:55:35.751Z,20.31
2022-10-07T13:58:06.577Z,19.99
2022-10-07T14:00:47.073Z,20.64
2022-10-07T14:03:16.985Z,20.42
2022-10-07T14:05:53.890Z,20.39
2022-10-07T14:08:30.415Z,20.58
2022-10-07T14:11:21.300Z,20.69
2022-10-07T14:13:48.288Z,20.57
2022-10-07T14:16:24.329Z,21.05
2022-10-07T14:18:52.661Z,20.85
2022-10-07T14:21:19.778Z,21.05
2022-10-07T14:23:49.865Z,20.61
2022-10-07T14:26:18.012Z,20.74
2022-10-07T14:28:54.379Z,20.92
2022-10-07T14:31:40.298Z,21.19
2022-10-07T14:34:37.226Z,21.28
2022-10-07T14:37:15.692Z,21.03
2022-10-07T14:39:53.633Z,20.92
2022-10-07T14:42:27.123Z,20.47
2022-10-07T14:45:17.466Z,20.36
2022-10-07T14:47:45.618Z,20.70
2022-10-07T14:50:14.177Z,20.63
2022-10-07T14:52:52.114Z,20.43
2022-10-07T14:55:26.207Z,20.25
2022-10-07T14:57:53.629Z,20.46
2022-10-07T15:00:29.336Z,20.06
2022-10-07T15:02:57.003Z,19.84
2022-10-07T15:05:24.467Z,19.76
2022-10-07T15:07:51.796Z,19.61
2022-10-07T15:10:23.591Z,19.10
2022-10-07T15:13:11.038Z,19.00
2022-10-07T15:15:46.805Z,18.99
2022-10-07T15:18:14.130Z,18.53
2022-10-07T15:20:41.980Z,18.66
2022-10-07T15:23:09.410Z,18.57
2022-10-07T15:25:42.465Z,18.51
2022-10-07T15:28:09.629Z,18.48
2022-10-07T15:30:39.355Z,18.48
2022-10-07T15:33:06.743Z,18.35
2022-10-07T15:35:37.305Z,18.27
2022-10-07T15:38:04.365Z,18.20
2022-10-07T15:40:31.484Z,18.01
2022-10-07T15:42:59.033Z,17.88
2022-10-07T15:45:26.797Z,17.61
2022-10-07T15:47:58.209Z,17.68
2022-10-07T15:50:27.458Z,17.57
2022-10-07T15:52:54.688Z,17.53
2022-10-07T15:55:21.666Z,17.26
2022-10-07T15:57:48.763Z,17.36
2022-10-07T16:00:16.908Z,17.16
2022-10-07T16:02:45.123Z,17.15
2022-10-07T16:05:12.842Z,16.92
2022-10-07T16:07:39.810Z,16.96
2022-10-07T16:10:12.684Z,16.88
2022-10-07T16:12:40.088Z,16.77
2022-10-07T16:15:07.530Z,16.76
2022-10-07T16:17:35.015Z,16.65
2022-10-07T16:20:05.533Z,16.50
2022-10-07T16:22:35.944Z,16.35
2022-10-07T16:25:02.866Z,16.19
2022-10-07T16:27:49.775Z,16.19
2022-10-07T16:30:35.523Z,16.04
2022-10-07T16:33:02.457Z,16.06
2022-10-07T16:35:32.432Z,16.05
2022-10-07T16:37:59.836Z,15.91
2022-10-07T16:40:26.741Z,15.87
2022-10-07T16:42:53.687Z,15.77
2022-10-07T16:45:21.431Z,15.67
2022-10-07T16:47:48.638Z,15.54
2022-10-07T16:50:15.888Z,15.60
2022-10-07T16:52:42.938Z,15.45
2022-10-07T16:55:10.024Z,15.52
2022-10-07T16:57:37.163Z,15.49
2022-10-07T17:00:05.152Z,15.38
2022-10-07T17:02:32.082Z,15.36
2022-10-07T17:04:59.021Z,14.81
2022-10-07T17:07:25.940Z,14.07
2022-10-07T17:09:52.900Z,13.63
2022-10-07T17:12:21.796Z,13.52
2022-10-07T17:14:48.717Z,13.27
2022-10-07T17:17:17.123Z,13.05
2022-10-07T17:19:44.072Z,13.14
2022-10-07T17:22:11.060Z,13.14
2022-10-07T17:24:38.009Z,12.98
2022-10-07T17:27:08.842Z,12.97
2022-10-07T17:29:38.252Z,12.48
2022-10-07T17:32:05.651Z,11.92
2022-10-07T17:34:34.172Z,11.89
2022-10-07T17:37:01.173Z,12.25
2022-10-07T17:39:28.225Z,12.26
2022-10-07T17:41:55.156Z,12.20
2022-10-07T17:44:22.201Z,12.31
2022-10-07T17:46:49.319Z,12.28
2022-10-07T17:49:16.259Z,12.04
2022-10-07T17:51:44.023Z,12.08
2022-10-07T17:54:13.924Z,12.27
2022-10-07T17:56:41.877Z,12.34
2022-10-07T17:59:08.822Z,12.35
2022-10-07T18:01:36.196Z,12.29
2022-10-07T18:04:11.434Z,12.31
2022-10-07T18:06:39.902Z,12.47
2022-10-07T18:09:15.286Z,12.18
2022-10-07T18:12:01.166Z,11.65
2022-10-07T18:14:51.094Z,11.39
2022-10-07T18:17:20.436Z,11.74
2022-10-07T18:19:47.501Z,11.47
2022-10-07T18:22:14.426Z,10.87
2022-10-07T18:24:41.521Z,10.50
2022-10-07T18:27:08.517Z,10.40
2022-10-07T18:29:38.027Z,10.24
2022-10-07T18:32:08.527Z,10.22
2022-10-07T18:34:36.202Z,10.01
2022-10-07T18:37:03.149Z,10.01
2022-10-07T18:39:30.162Z,10.30
2022-10-07T18:41:58.159Z,10.64
2022-10-07T18:44:25.544Z,10.41
2022-10-07T18:46:53.214Z,10.65
2022-10-07T18:49:20.108Z,10.60
2022-10-07T18:51:50.279Z,10.74
2022-10-07T18:54:19.050Z,10.19
2022-10-07T18:56:50.987Z,10.37
2022-10-07T18:59:19.677Z,10.23
2022-10-07T19:01:50.543Z,10.11
2022-10-07T19:04:18.866Z,9.88
2022-10-07T19:06:46.470Z,9.93
2022-10-07T19:09:21.016Z,9.63
2022-10-07T19:11:49.246Z,9.80
2022-10-07T19:14:16.863Z,9.80
2022-10-07T19:16:49.612Z,9.59
2022-10-07T19:19:21.190Z,9.42
2022-10-07T19:21:54.933Z,9.38
2022-10-07T19:24:45.328Z,9.38
2022-10-07T19:27:12.319Z,9.20
2022-10-07T19:29:39.324Z,9.42
2022-10-07T19:32:08.539Z,9.51
2022-10-07T19:34:36.101Z,9.64
2022-10-07T19:37:03.299Z,9.53
2022-10-07T19:39:30.253Z,9.60
2022-10-07T19:41:58.695Z,9.72
2022-10-07T19:44:25.689Z,9.91
2022-10-07T19:46:54.171Z,9.74
2022-10-07T19:49:22.208Z,9.50
2022-10-07T19:51:49.157Z,9.63
2022-10-07T19:54:16.205Z,9.62
2022-10-07T19:56:45.030Z,9.48
2022-10-07T19:59:14.331Z,9.53
2022-10-07T20:01:45.194Z,9.57
2022-10-07T20:04:20.891Z,9.47
2022-10-07T20:06:48.184Z,9.61
2022-10-07T20:09:18.365Z,9.94
2022-10-07T20:11:46.744Z,10.30
2022-10-07T20:14:16.018Z,10.30
2022-10-07T20:16:43.208Z,10.17
2022-10-07T20:19:18.548Z,9.81
2022-10-07T20:21:46.554Z,9.66
2022-10-07T20:24:16.204Z,9.62
2022-10-07T20:26:44.117Z,9.89
2022-10-07T20:29:13.637Z,9.88
2022-10-07T20:31:42.150Z,10.03
2022-10-07T20:34:15.885Z,9.82
2022-10-07T20:36:43.271Z,9.78
2022-10-07T20:39:39.179Z,9.35
2022-10-07T20:42:22.123Z,9.79
2022-10-07T20:44:50.652Z,10.00
2022-10-07T20:47:19.850Z,10.00
2022-10-07T20:49:48.563Z,9.96
2022-10-07T20:52:22.725Z,10.27
2022-10-07T20:54:51.516Z,10.17
2022-10-07T20:57:25.663Z,10.36
2022-10-07T20:59:52.681Z,10.31
2022-10-07T21:02:23.051Z,9.93
2022-10-07T21:04:50.085Z,10.29
2022-10-07T21:07:18.679Z,10.52
2022-10-07T21:09:47.110Z,10.56
2022-10-07T21:12:17.935Z,10.67
2022-10-07T21:14:46.965Z,10.56
2022-10-07T21:17:14.948Z,10.42
2022-10-07T21:19:43.412Z,10.52
2022-10-07T21:22:10.557Z,10.54
2022-10-07T21:24:37.496Z,10.33
2022-10-07T21:27:07.268Z,10.09
2022-10-07T21:29:39.188Z,10.06
2022-10-07T21:32:09.740Z,9.90
2022-10-07T21:34:37.531Z,9.71
2022-10-07T21:37:04.880Z,9.62
2022-10-07T21:39:32.243Z,9.51
2022-10-07T21:41:59.771Z,9.61
2022-10-07T21:44:27.460Z,9.87
2022-10-07T21:46:54.441Z,10.03
2022-10-07T21:49:21.422Z,10.03
2022-10-07T21:51:48.461Z,9.99
2022-10-07T21:54:15.538Z,9.64
2022-10-07T21:56:45.784Z,9.55
2022-10-07T21:59:13.960Z,9.74
2022-10-07T22:01:42.395Z,9.88
2022-10-07T22:04:19.173Z,9.31
2022-10-07T22:07:05.151Z,8.95
2022-10-07T22:09:33.201Z,8.69
2022-10-07T22:12:00.214Z,8.85
2022-10-07T22:14:27.754Z,9.22
2022-10-07T22:16:54.786Z,9.35
2022-10-07T22:19:22.853Z,9.60
2022-10-07T22:21:49.847Z,9.49
2022-10-07T22:24:16.834Z,9.36
2022-10-07T22:26:47.746Z,9.28
2022-10-07T22:29:18.662Z,9.07
2022-10-07T22:31:46.953Z,9.08
2022-10-07T22:34:33.890Z,9.29
2022-10-07T22:37:01.592Z,9.12
2022-10-07T22:39:29.339Z,9.22
2022-10-07T22:41:58.396Z,9.33
2022-10-07T22:44:28.503Z,9.43
2022-10-07T22:46:59.154Z,9.38
2022-10-07T22:49:29.818Z,9.31
2022-10-07T22:52:00.551Z,9.50
2022-10-07T22:54:27.804Z,9.72
2022-10-07T22:56:54.827Z,9.80
2022-10-07T22:59:22.424Z,9.64
2022-10-07T23:01:49.359Z,9.43
2022-10-07T23:04:20.082Z,9.60
2022-10-07T23:06:47.064Z,9.66
2022-10-07T23:09:13.992Z,9.60
2022-10-07T23:11:41.060Z,9.35
2022-10-07T23:14:08.068Z,9.02
2022-10-07T23:16:34.964Z,8.91
2022-10-07T23:19:02.042Z,8.77
2022-10-07T23:21:34.614Z,8.38
2022-10-07T23:24:07.431Z,8.09
2022-10-07T23:26:36.445Z,8.21
2022-10-07T23:29:04.508Z,8.17
2022-10-07T23:31:32.983Z,8.11
2022-10-07T23:34:02.173Z,8.14
2022-10-07T23:36:29.943Z,8.20
2022-10-07T23:39:00.184Z,8.22
2022-10-07T23:41:30.319Z,8.24
2022-10-07T23:44:02.253Z,8.23
2022-10-07T23:46:32.984Z,8.01
2022-10-07T23:49:00.449Z,8.19
2022-10-07T23:51:29.114Z,8.27
2022-10-07T23:53:57.142Z,8.36
2022-10-07T23:56:24.364Z,8.38
2022-10-07T23:58:51.470Z,8.23
